sensor_id;sensor_type;location;lat;lon;timestamp;pressure;altitude;pressure_sealevel;temperature;humidity
4576;BME280;2300;51.874;8.430;2023-09-07T00:00:11;101234.34;;;18.70;80.78
4576;BME280;2300;51.874;8.430;2023-09-07T00:02:38;101239.63;;;18.72;80.77
4576;BME280;2300;51.874;8.430;2023-09-07T00:05:08;101235.97;;;18.66;81.14
4576;BME280;2300;51.874;8.430;2023-09-07T00:07:35;101243.22;;;18.62;80.99
4576;BME280;2300;51.874;8.430;2023-09-07T00:10:02;101235.94;;;18.56;80.95
4576;BME280;2300;51.874;8.430;2023-09-07T00:12:31;101232.03;;;18.52;81.30
4576;BME280;2300;51.874;8.430;2023-09-07T00:14:58;101225.91;;;18.50;80.85
4576;BME280;2300;51.874;8.430;2023-09-07T00:17:25;101241.81;;;18.55;80.70
4576;BME280;2300;51.874;8.430;2023-09-07T00:19:52;101237.59;;;18.47;81.26
4576;BME280;2300;51.874;8.430;2023-09-07T00:22:23;101240.34;;;18.42;81.15
4576;BME280;2300;51.874;8.430;2023-09-07T00:24:51;101230.63;;;18.39;81.25
4576;BME280;2300;51.874;8.430;2023-09-07T00:27:18;101233.06;;;18.31;81.81
4576;BME280;2300;51.874;8.430;2023-09-07T00:29:44;101233.31;;;18.29;81.13
4576;BME280;2300;51.874;8.430;2023-09-07T00:32:11;101238.63;;;18.31;80.77
4576;BME280;2300;51.874;8.430;2023-09-07T00:34:37;101229.16;;;18.27;81.07
4576;BME280;2300;51.874;8.430;2023-09-07T00:37:05;101232.22;;;18.30;80.69
4576;BME280;2300;51.874;8.430;2023-09-07T00:39:33;101235.34;;;18.39;80.24
4576;BME280;2300;51.874;8.430;2023-09-07T00:42:02;101238.66;;;18.41;79.90
4576;BME280;2300;51.874;8.430;2023-09-07T00:44:29;101241.16;;;18.37;79.67
4576;BME280;2300;51.874;8.430;2023-09-07T00:46:56;101225.81;;;18.30;79.90
4576;BME280;2300;51.874;8.430;2023-09-07T00:49:23;101233.94;;;18.36;79.96
4576;BME280;2300;51.874;8.430;2023-09-07T00:51:52;101236.97;;;18.35;79.88
4576;BME280;2300;51.874;8.430;2023-09-07T00:54:19;101239.75;;;18.35;80.06
4576;BME280;2300;51.874;8.430;2023-09-07T00:56:47;101243.63;;;18.29;80.12
4576;BME280;2300;51.874;8.430;2023-09-07T00:59:14;101237.44;;;18.17;80.52
4576;BME280;2300;51.874;8.430;2023-09-07T01:01:40;101228.81;;;18.08;80.88
4576;BME280;2300;51.874;8.430;2023-09-07T01:04:12;101223.19;;;17.98;81.41
4576;BME280;2300;51.874;8.430;2023-09-07T01:06:43;101232.63;;;17.97;81.38
4576;BME280;2300;51.874;8.430;2023-09-07T01:09:17;101236.19;;;17.92;82.39
4576;BME280;2300;51.874;8.430;2023-09-07T01:11:47;101231.66;;;17.81;82.99
4576;BME280;2300;51.874;8.430;2023-09-07T01:14:15;101236.84;;;17.73;84.16
4576;BME280;2300;51.874;8.430;2023-09-07T01:16:42;101235.97;;;17.67;84.61
4576;BME280;2300;51.874;8.430;2023-09-07T01:19:09;101229.25;;;17.58;84.87
4576;BME280;2300;51.874;8.430;2023-09-07T01:21:38;101229.16;;;17.48;85.32
4576;BME280;2300;51.874;8.430;2023-09-07T01:24:07;101224.38;;;17.38;85.66
4576;BME280;2300;51.874;8.430;2023-09-07T01:26:34;101221.53;;;17.28;86.47
4576;BME280;2300;51.874;8.430;2023-09-07T01:29:04;101219.53;;;17.24;86.59
4576;BME280;2300;51.874;8.430;2023-09-07T01:31:34;101215.63;;;17.20;86.84
4576;BME280;2300;51.874;8.430;2023-09-07T01:34:01;101220.53;;;17.12;87.39
4576;BME280;2300;51.874;8.430;2023-09-07T01:36:27;101220.41;;;17.02;87.38
4576;BME280;2300;51.874;8.430;2023-09-07T01:38:59;101227.00;;;16.96;87.59
4576;BME280;2300;51.874;8.430;2023-09-07T01:41:28;101224.81;;;16.98;87.48
4576;BME280;2300;51.874;8.430;2023-09-07T01:43:55;101215.81;;;16.86;87.67
4576;BME280;2300;51.874;8.430;2023-09-07T01:46:22;101217.50;;;16.87;87.50
4576;BME280;2300;51.874;8.430;2023-09-07T01:48:49;101223.00;;;16.82;87.49
4576;BME280;2300;51.874;8.430;2023-09-07T01:51:18;101216.25;;;16.73;87.72
4576;BME280;2300;51.874;8.430;2023-09-07T01:53:47;101210.25;;;16.59;87.67
4576;BME280;2300;51.874;8.430;2023-09-07T01:56:15;101218.91;;;16.63;88.13
4576;BME280;2300;51.874;8.430;2023-09-07T01:58:42;101211.63;;;16.57;88.35
4576;BME280;2300;51.874;8.430;2023-09-07T02:01:19;101190.84;;;16.38;89.37
4576;BME280;2300;51.874;8.430;2023-09-07T02:03:46;101211.16;;;16.43;89.58
4576;BME280;2300;51.874;8.430;2023-09-07T02:06:13;101208.13;;;16.45;89.79
4576;BME280;2300;51.874;8.430;2023-09-07T02:08:40;101211.16;;;16.43;90.04
4576;BME280;2300;51.874;8.430;2023-09-07T02:11:06;101221.94;;;16.40;89.86
4576;BME280;2300;51.874;8.430;2023-09-07T02:13:36;101208.53;;;16.31;90.21
4576;BME280;2300;51.874;8.430;2023-09-07T02:18:41;101211.56;;;16.30;90.35
4576;BME280;2300;51.874;8.430;2023-09-07T02:21:11;101213.19;;;16.26;90.70
4576;BME280;2300;51.874;8.430;2023-09-07T02:23:38;101220.34;;;16.22;90.54
4576;BME280;2300;51.874;8.430;2023-09-07T02:26:04;101221.69;;;16.19;91.07
4576;BME280;2300;51.874;8.430;2023-09-07T02:28:31;101219.50;;;16.21;90.34
4576;BME280;2300;51.874;8.430;2023-09-07T02:31:04;101185.31;;;15.94;90.87
4576;BME280;2300;51.874;8.430;2023-09-07T02:33:31;101198.63;;;15.97;91.16
4576;BME280;2300;51.874;8.430;2023-09-07T02:35:58;101218.69;;;16.04;91.48
4576;BME280;2300;51.874;8.430;2023-09-07T02:38:25;101204.09;;;15.92;91.83
4576;BME280;2300;51.874;8.430;2023-09-07T02:40:55;101176.13;;;15.72;91.96
4576;BME280;2300;51.874;8.430;2023-09-07T02:43:22;101206.28;;;15.90;91.93
4576;BME280;2300;51.874;8.430;2023-09-07T02:45:50;101168.25;;;15.64;91.52
4576;BME280;2300;51.874;8.430;2023-09-07T02:48:18;101204.13;;;15.75;92.50
4576;BME280;2300;51.874;8.430;2023-09-07T02:50:48;101190.91;;;15.61;93.05
4576;BME280;2300;51.874;8.430;2023-09-07T02:53:16;101214.94;;;15.77;93.47
4576;BME280;2300;51.874;8.430;2023-09-07T02:55:44;101199.94;;;15.73;92.76
4576;BME280;2300;51.874;8.430;2023-09-07T02:58:13;101210.84;;;15.79;92.59
4576;BME280;2300;51.874;8.430;2023-09-07T03:00:43;101216.56;;;15.73;92.97
4576;BME280;2300;51.874;8.430;2023-09-07T03:03:13;101193.44;;;15.45;93.26
4576;BME280;2300;51.874;8.430;2023-09-07T03:05:43;101200.97;;;15.67;93.29
4576;BME280;2300;51.874;8.430;2023-09-07T03:08:12;101209.19;;;15.62;93.49
4576;BME280;2300;51.874;8.430;2023-09-07T03:10:39;101213.88;;;15.61;93.48
4576;BME280;2300;51.874;8.430;2023-09-07T03:13:06;101213.56;;;15.58;93.46
4576;BME280;2300;51.874;8.430;2023-09-07T03:15:33;101209.28;;;15.50;93.76
4576;BME280;2300;51.874;8.430;2023-09-07T03:17:59;101213.97;;;15.49;93.61
4576;BME280;2300;51.874;8.430;2023-09-07T03:20:26;101210.88;;;15.46;93.79
4576;BME280;2300;51.874;8.430;2023-09-07T03:22:57;101213.00;;;15.39;94.28
4576;BME280;2300;51.874;8.430;2023-09-07T03:25:25;101212.63;;;15.35;94.10
4576;BME280;2300;51.874;8.430;2023-09-07T03:27:51;101219.25;;;15.34;94.03
4576;BME280;2300;51.874;8.430;2023-09-07T03:30:18;101136.66;;;14.93;93.62
4576;BME280;2300;51.874;8.430;2023-09-07T03:32:45;101210.16;;;15.34;93.55
4576;BME280;2300;51.874;8.430;2023-09-07T03:35:12;101208.38;;;15.28;94.09
4576;BME280;2300;51.874;8.430;2023-09-07T03:37:38;101211.38;;;15.26;94.17
4576;BME280;2300;51.874;8.430;2023-09-07T03:40:08;101210.31;;;15.27;94.73
4576;BME280;2300;51.874;8.430;2023-09-07T03:42:35;101210.53;;;15.26;94.43
4576;BME280;2300;51.874;8.430;2023-09-07T03:45:03;101185.72;;;15.14;94.14
4576;BME280;2300;51.874;8.430;2023-09-07T03:47:30;101214.66;;;15.23;94.26
4576;BME280;2300;51.874;8.430;2023-09-07T03:49:57;101219.69;;;15.26;94.87
4576;BME280;2300;51.874;8.430;2023-09-07T03:52:24;101218.09;;;15.30;94.67
4576;BME280;2300;51.874;8.430;2023-09-07T03:54:53;101218.19;;;15.35;94.26
4576;BME280;2300;51.874;8.430;2023-09-07T03:57:22;101213.88;;;15.44;94.06
4576;BME280;2300;51.874;8.430;2023-09-07T03:59:49;101232.59;;;15.54;93.67
4576;BME280;2300;51.874;8.430;2023-09-07T04:02:16;101233.78;;;15.58;93.18
4576;BME280;2300;51.874;8.430;2023-09-07T04:04:43;101200.50;;;15.36;92.69
4576;BME280;2300;51.874;8.430;2023-09-07T04:07:10;101233.41;;;15.55;92.31
4576;BME280;2300;51.874;8.430;2023-09-07T04:09:39;101224.56;;;15.53;92.52
4576;BME280;2300;51.874;8.430;2023-09-07T04:12:07;101208.53;;;15.38;92.17
4576;BME280;2300;51.874;8.430;2023-09-07T04:14:37;101172.50;;;15.16;92.02
4576;BME280;2300;51.874;8.430;2023-09-07T04:17:04;101196.38;;;15.22;92.08
4576;BME280;2300;51.874;8.430;2023-09-07T04:19:31;101205.53;;;15.23;91.85
4576;BME280;2300;51.874;8.430;2023-09-07T04:21:58;101206.53;;;15.17;92.44
4576;BME280;2300;51.874;8.430;2023-09-07T04:24:25;101216.41;;;15.29;92.28
4576;BME280;2300;51.874;8.430;2023-09-07T04:26:52;101196.31;;;15.17;92.20
4576;BME280;2300;51.874;8.430;2023-09-07T04:29:19;101223.63;;;15.30;92.30
4576;BME280;2300;51.874;8.430;2023-09-07T04:31:48;101138.06;;;14.79;92.59
4576;BME280;2300;51.874;8.430;2023-09-07T04:34:14;101173.78;;;14.80;93.13
4576;BME280;2300;51.874;8.430;2023-09-07T04:36:41;101208.25;;;15.06;93.58
4576;BME280;2300;51.874;8.430;2023-09-07T04:39:07;101208.72;;;15.03;93.44
4576;BME280;2300;51.874;8.430;2023-09-07T04:41:34;101219.88;;;15.08;93.63
4576;BME280;2300;51.874;8.430;2023-09-07T04:44:01;101210.53;;;15.09;93.16
4576;BME280;2300;51.874;8.430;2023-09-07T04:46:27;101173.16;;;14.78;93.07
4576;BME280;2300;51.874;8.430;2023-09-07T04:48:56;101211.16;;;14.99;93.68
4576;BME280;2300;51.874;8.430;2023-09-07T04:51:22;101211.41;;;14.98;93.86
4576;BME280;2300;51.874;8.430;2023-09-07T04:53:51;101084.38;;;14.13;94.35
4576;BME280;2300;51.874;8.430;2023-09-07T04:56:18;101236.47;;;14.91;94.77
4576;BME280;2300;51.874;8.430;2023-09-07T04:58:45;101219.50;;;14.88;95.37
4576;BME280;2300;51.874;8.430;2023-09-07T05:01:13;101223.47;;;14.92;95.29
4576;BME280;2300;51.874;8.430;2023-09-07T05:03:40;101200.34;;;14.81;94.89
4576;BME280;2300;51.874;8.430;2023-09-07T05:06:11;101153.59;;;14.51;95.95
4576;BME280;2300;51.874;8.430;2023-09-07T05:08:38;101208.34;;;14.83;95.77
4576;BME280;2300;51.874;8.430;2023-09-07T05:11:05;101232.44;;;14.99;95.13
4576;BME280;2300;51.874;8.430;2023-09-07T05:13:31;101225.66;;;14.90;96.06
4576;BME280;2300;51.874;8.430;2023-09-07T05:15:59;101235.97;;;14.94;95.56
4576;BME280;2300;51.874;8.430;2023-09-07T05:18:27;101176.41;;;14.58;95.59
4576;BME280;2300;51.874;8.430;2023-09-07T05:20:53;101226.91;;;14.99;95.63
4576;BME280;2300;51.874;8.430;2023-09-07T05:23:25;101239.38;;;15.13;95.08
4576;BME280;2300;51.874;8.430;2023-09-07T05:25:54;101241.13;;;15.19;95.26
4576;BME280;2300;51.874;8.430;2023-09-07T05:28:23;101241.06;;;15.31;95.27
4576;BME280;2300;51.874;8.430;2023-09-07T05:30:50;101247.44;;;15.65;95.92
4576;BME280;2300;51.874;8.430;2023-09-07T05:33:18;101241.53;;;15.95;94.30
4576;BME280;2300;51.874;8.430;2023-09-07T05:35:45;101196.31;;;15.89;92.84
4576;BME280;2300;51.874;8.430;2023-09-07T05:38:12;101215.75;;;16.11;92.06
4576;BME280;2300;51.874;8.430;2023-09-07T05:40:42;101206.75;;;16.20;91.58
4576;BME280;2300;51.874;8.430;2023-09-07T05:43:09;101251.53;;;16.56;90.81
4576;BME280;2300;51.874;8.430;2023-09-07T05:45:38;101243.06;;;16.67;89.83
4576;BME280;2300;51.874;8.430;2023-09-07T05:48:05;101246.22;;;16.76;89.21
4576;BME280;2300;51.874;8.430;2023-09-07T05:50:34;101241.31;;;16.83;88.35
4576;BME280;2300;51.874;8.430;2023-09-07T05:53:02;101248.69;;;16.99;87.91
4576;BME280;2300;51.874;8.430;2023-09-07T05:55:31;101253.78;;;17.07;87.59
4576;BME280;2300;51.874;8.430;2023-09-07T05:58:04;101257.75;;;17.16;86.77
4576;BME280;2300;51.874;8.430;2023-09-07T06:00:31;101250.69;;;17.31;86.64
4576;BME280;2300;51.874;8.430;2023-09-07T06:02:58;101220.38;;;17.24;86.32
4576;BME280;2300;51.874;8.430;2023-09-07T06:05:25;101232.50;;;17.45;86.02
4576;BME280;2300;51.874;8.430;2023-09-07T06:07:52;101262.13;;;17.71;85.77
4576;BME280;2300;51.874;8.430;2023-09-07T06:10:19;101257.19;;;17.83;85.44
4576;BME280;2300;51.874;8.430;2023-09-07T06:12:46;101259.56;;;17.96;84.90
4576;BME280;2300;51.874;8.430;2023-09-07T06:15:14;101261.88;;;18.15;84.68
4576;BME280;2300;51.874;8.430;2023-09-07T06:17:42;101264.75;;;18.30;83.61
4576;BME280;2300;51.874;8.430;2023-09-07T06:20:10;101257.59;;;18.44;83.19
4576;BME280;2300;51.874;8.430;2023-09-07T06:22:36;101264.34;;;18.58;82.45
4576;BME280;2300;51.874;8.430;2023-09-07T06:25:04;101271.88;;;18.68;82.00
4576;BME280;2300;51.874;8.430;2023-09-07T06:27:30;101274.94;;;18.76;81.50
4576;BME280;2300;51.874;8.430;2023-09-07T06:29:57;101267.81;;;18.85;81.19
4576;BME280;2300;51.874;8.430;2023-09-07T06:32:26;101267.53;;;18.92;81.70
4576;BME280;2300;51.874;8.430;2023-09-07T06:34:52;101261.72;;;19.04;80.83
4576;BME280;2300;51.874;8.430;2023-09-07T06:37:19;101261.44;;;19.05;80.70
4576;BME280;2300;51.874;8.430;2023-09-07T06:39:46;101264.50;;;19.14;80.48
4576;BME280;2300;51.874;8.430;2023-09-07T06:42:13;101257.56;;;19.06;79.70
4576;BME280;2300;51.874;8.430;2023-09-07T06:44:41;101263.41;;;19.20;79.51
4576;BME280;2300;51.874;8.430;2023-09-07T06:47:08;101270.09;;;19.24;79.97
4576;BME280;2300;51.874;8.430;2023-09-07T06:49:37;101279.03;;;19.36;80.11
4576;BME280;2300;51.874;8.430;2023-09-07T06:52:05;101275.69;;;19.34;79.44
4576;BME280;2300;51.874;8.430;2023-09-07T06:54:32;101281.81;;;19.41;78.70
4576;BME280;2300;51.874;8.430;2023-09-07T06:57:00;101276.25;;;19.51;78.25
4576;BME280;2300;51.874;8.430;2023-09-07T06:59:27;101275.16;;;19.62;78.05
4576;BME280;2300;51.874;8.430;2023-09-07T07:01:54;101273.50;;;19.72;78.19
4576;BME280;2300;51.874;8.430;2023-09-07T07:04:25;101274.03;;;19.89;77.79
4576;BME280;2300;51.874;8.430;2023-09-07T07:06:53;101239.50;;;19.69;77.33
4576;BME280;2300;51.874;8.430;2023-09-07T07:11:46;101274.53;;;20.11;77.05
4576;BME280;2300;51.874;8.430;2023-09-07T07:14:14;101286.75;;;20.40;76.94
4576;BME280;2300;51.874;8.430;2023-09-07T07:16:41;101277.19;;;20.72;75.46
4576;BME280;2300;51.874;8.430;2023-09-07T07:19:08;101258.66;;;20.91;75.46
4576;BME280;2300;51.874;8.430;2023-09-07T07:21:35;101265.63;;;21.37;74.13
4576;BME280;2300;51.874;8.430;2023-09-07T07:24:04;101284.22;;;21.86;72.79
4576;BME280;2300;51.874;8.430;2023-09-07T07:26:32;101273.34;;;22.13;72.29
4576;BME280;2300;51.874;8.430;2023-09-07T07:28:58;101283.00;;;22.50;71.46
4576;BME280;2300;51.874;8.430;2023-09-07T07:31:25;101257.59;;;22.70;70.01
4576;BME280;2300;51.874;8.430;2023-09-07T07:33:53;101282.22;;;22.92;69.34
4576;BME280;2300;51.874;8.430;2023-09-07T07:36:20;101295.56;;;23.19;69.19
4576;BME280;2300;51.874;8.430;2023-09-07T07:38:47;101299.25;;;23.33;68.46
4576;BME280;2300;51.874;8.430;2023-09-07T07:41:15;101296.16;;;23.53;67.93
4576;BME280;2300;51.874;8.430;2023-09-07T07:43:42;101291.88;;;23.74;67.99
4576;BME280;2300;51.874;8.430;2023-09-07T07:46:08;101294.22;;;23.86;66.76
4576;BME280;2300;51.874;8.430;2023-09-07T07:48:35;101277.91;;;23.56;67.58
4576;BME280;2300;51.874;8.430;2023-09-07T07:51:03;101309.88;;;24.06;67.02
4576;BME280;2300;51.874;8.430;2023-09-07T07:53:30;101290.81;;;24.35;66.03
4576;BME280;2300;51.874;8.430;2023-09-07T07:55:57;101291.81;;;24.25;65.65
4576;BME280;2300;51.874;8.430;2023-09-07T07:58:26;101229.84;;;23.95;66.31
4576;BME280;2300;51.874;8.430;2023-09-07T08:00:53;101301.44;;;24.65;66.45
4576;BME280;2300;51.874;8.430;2023-09-07T08:03:23;101294.16;;;24.92;65.00
4576;BME280;2300;51.874;8.430;2023-09-07T08:05:50;101272.03;;;24.77;65.66
4576;BME280;2300;51.874;8.430;2023-09-07T08:08:17;101266.78;;;25.33;65.23
4576;BME280;2300;51.874;8.430;2023-09-07T08:10:44;101290.31;;;25.37;63.27
4576;BME280;2300;51.874;8.430;2023-09-07T08:13:11;101290.84;;;25.26;63.49
4576;BME280;2300;51.874;8.430;2023-09-07T08:15:40;101267.28;;;25.13;64.55
4576;BME280;2300;51.874;8.430;2023-09-07T08:18:09;101273.47;;;25.37;63.95
4576;BME280;2300;51.874;8.430;2023-09-07T08:20:36;101277.09;;;25.60;64.82
4576;BME280;2300;51.874;8.430;2023-09-07T08:23:05;101276.13;;;25.87;63.81
4576;BME280;2300;51.874;8.430;2023-09-07T08:25:34;101275.31;;;26.09;63.58
4576;BME280;2300;51.874;8.430;2023-09-07T08:28:02;101288.63;;;26.25;63.58
4576;BME280;2300;51.874;8.430;2023-09-07T08:30:30;101257.72;;;26.03;63.16
4576;BME280;2300;51.874;8.430;2023-09-07T08:32:58;101286.75;;;26.52;62.86
4576;BME280;2300;51.874;8.430;2023-09-07T08:35:27;101292.59;;;26.64;62.87
4576;BME280;2300;51.874;8.430;2023-09-07T08:37:54;101252.41;;;26.72;60.83
4576;BME280;2300;51.874;8.430;2023-09-07T08:40:23;101274.97;;;26.89;60.67
4576;BME280;2300;51.874;8.430;2023-09-07T08:42:52;101215.00;;;26.32;59.42
4576;BME280;2300;51.874;8.430;2023-09-07T08:45:21;101266.97;;;26.74;59.72
4576;BME280;2300;51.874;8.430;2023-09-07T08:47:49;101278.63;;;26.98;60.44
4576;BME280;2300;51.874;8.430;2023-09-07T08:50:18;101252.97;;;27.08;59.91
4576;BME280;2300;51.874;8.430;2023-09-07T08:52:46;101271.88;;;27.42;61.47
4576;BME280;2300;51.874;8.430;2023-09-07T08:55:15;101270.06;;;27.38;58.58
4576;BME280;2300;51.874;8.430;2023-09-07T08:57:42;101262.25;;;27.09;59.75
4576;BME280;2300;51.874;8.430;2023-09-07T09:00:10;101192.44;;;26.80;58.15
4576;BME280;2300;51.874;8.430;2023-09-07T09:02:40;101279.50;;;27.42;57.36
4576;BME280;2300;51.874;8.430;2023-09-07T09:05:09;101266.75;;;27.53;59.55
4576;BME280;2300;51.874;8.430;2023-09-07T09:07:38;101266.88;;;27.74;58.08
4576;BME280;2300;51.874;8.430;2023-09-07T09:10:08;101271.03;;;27.76;56.14
4576;BME280;2300;51.874;8.430;2023-09-07T09:12:45;101265.72;;;27.83;57.17
4576;BME280;2300;51.874;8.430;2023-09-07T09:15:15;101228.72;;;27.85;56.84
4576;BME280;2300;51.874;8.430;2023-09-07T09:17:42;101259.38;;;28.03;59.33
4576;BME280;2300;51.874;8.430;2023-09-07T09:20:20;101256.72;;;27.98;55.15
4576;BME280;2300;51.874;8.430;2023-09-07T09:22:50;101272.50;;;28.08;57.47
4576;BME280;2300;51.874;8.430;2023-09-07T09:25:20;101266.75;;;28.34;57.07
4576;BME280;2300;51.874;8.430;2023-09-07T09:27:59;101177.34;;;27.53;55.34
4576;BME280;2300;51.874;8.430;2023-09-07T09:30:36;101213.97;;;27.62;55.83
4576;BME280;2300;51.874;8.430;2023-09-07T09:33:05;101163.41;;;27.48;55.01
4576;BME280;2300;51.874;8.430;2023-09-07T09:35:36;101211.63;;;27.73;56.26
4576;BME280;2300;51.874;8.430;2023-09-07T09:38:05;101242.91;;;28.14;56.97
4576;BME280;2300;51.874;8.430;2023-09-07T09:40:33;101247.47;;;28.44;54.49
4576;BME280;2300;51.874;8.430;2023-09-07T09:43:02;101189.50;;;28.00;55.25
4576;BME280;2300;51.874;8.430;2023-09-07T09:45:31;101211.53;;;28.16;54.64
4576;BME280;2300;51.874;8.430;2023-09-07T09:47:59;101243.56;;;28.58;54.65
4576;BME280;2300;51.874;8.430;2023-09-07T09:50:29;101231.63;;;28.52;55.72
4576;BME280;2300;51.874;8.430;2023-09-07T09:52:57;101242.63;;;28.36;53.62
4576;BME280;2300;51.874;8.430;2023-09-07T09:55:26;101226.94;;;28.56;55.58
4576;BME280;2300;51.874;8.430;2023-09-07T09:57:53;101231.47;;;28.78;55.32
4576;BME280;2300;51.874;8.430;2023-09-07T10:00:26;101198.50;;;28.90;53.19
4576;BME280;2300;51.874;8.430;2023-09-07T10:03:05;101214.03;;;28.55;54.40
4576;BME280;2300;51.874;8.430;2023-09-07T10:05:36;101241.66;;;29.00;54.49
4576;BME280;2300;51.874;8.430;2023-09-07T10:08:11;101231.94;;;28.59;54.99
4576;BME280;2300;51.874;8.430;2023-09-07T10:10:42;101235.56;;;28.89;56.00
4576;BME280;2300;51.874;8.430;2023-09-07T10:13:13;101226.88;;;28.94;54.39
4576;BME280;2300;51.874;8.430;2023-09-07T10:15:40;101238.44;;;28.80;53.27
4576;BME280;2300;51.874;8.430;2023-09-07T10:18:17;101232.59;;;28.56;53.90
4576;BME280;2300;51.874;8.430;2023-09-07T10:20:53;101237.53;;;28.68;53.96
4576;BME280;2300;51.874;8.430;2023-09-07T10:23:22;101233.41;;;28.65;54.26
4576;BME280;2300;51.874;8.430;2023-09-07T10:25:53;101218.97;;;28.58;53.78
4576;BME280;2300;51.874;8.430;2023-09-07T10:28:22;101227.97;;;28.81;53.09
4576;BME280;2300;51.874;8.430;2023-09-07T10:31:01;101221.75;;;28.67;53.42
4576;BME280;2300;51.874;8.430;2023-09-07T10:33:30;101203.44;;;28.94;54.74
4576;BME280;2300;51.874;8.430;2023-09-07T10:35:57;101218.34;;;29.03;52.30
4576;BME280;2300;51.874;8.430;2023-09-07T10:38:23;101186.13;;;28.74;51.75
4576;BME280;2300;51.874;8.430;2023-09-07T10:40:56;101212.13;;;28.88;53.26
4576;BME280;2300;51.874;8.430;2023-09-07T10:43:28;101175.59;;;28.83;52.94
4576;BME280;2300;51.874;8.430;2023-09-07T10:45:55;101170.81;;;29.05;53.11
4576;BME280;2300;51.874;8.430;2023-09-07T10:48:23;101219.13;;;29.53;54.45
4576;BME280;2300;51.874;8.430;2023-09-07T10:50:51;101219.03;;;29.41;53.18
4576;BME280;2300;51.874;8.430;2023-09-07T10:53:25;101213.69;;;29.60;51.92
4576;BME280;2300;51.874;8.430;2023-09-07T10:55:53;101215.72;;;29.39;51.31
4576;BME280;2300;51.874;8.430;2023-09-07T10:58:29;101198.75;;;29.39;54.93
4576;BME280;2300;51.874;8.430;2023-09-07T11:00:57;101206.09;;;29.73;52.76
4576;BME280;2300;51.874;8.430;2023-09-07T11:03:24;101207.16;;;29.68;50.90
4576;BME280;2300;51.874;8.430;2023-09-07T11:05:55;101183.06;;;29.09;52.29
4576;BME280;2300;51.874;8.430;2023-09-07T11:08:24;101176.94;;;29.07;53.59
4576;BME280;2300;51.874;8.430;2023-09-07T11:10:54;101195.06;;;29.06;53.18
4576;BME280;2300;51.874;8.430;2023-09-07T11:13:21;101189.13;;;29.19;53.75
4576;BME280;2300;51.874;8.430;2023-09-07T11:15:53;101185.94;;;29.42;51.93
4576;BME280;2300;51.874;8.430;2023-09-07T11:18:20;101148.41;;;29.53;53.10
4576;BME280;2300;51.874;8.430;2023-09-07T11:20:50;101190.66;;;29.83;54.17
4576;BME280;2300;51.874;8.430;2023-09-07T11:23:18;101187.25;;;30.01;52.32
4576;BME280;2300;51.874;8.430;2023-09-07T11:25:47;101163.09;;;30.04;52.63
4576;BME280;2300;51.874;8.430;2023-09-07T11:28:16;101179.50;;;29.98;52.42
4576;BME280;2300;51.874;8.430;2023-09-07T11:30:52;101177.69;;;29.82;51.54
4576;BME280;2300;51.874;8.430;2023-09-07T11:33:20;101146.22;;;29.38;52.85
4576;BME280;2300;51.874;8.430;2023-09-07T11:35:49;101130.09;;;29.18;51.04
4576;BME280;2300;51.874;8.430;2023-09-07T11:38:17;101121.91;;;29.58;55.24
4576;BME280;2300;51.874;8.430;2023-09-07T11:40:44;101179.16;;;30.00;52.89
4576;BME280;2300;51.874;8.430;2023-09-07T11:43:11;101167.16;;;30.15;52.12
4576;BME280;2300;51.874;8.430;2023-09-07T11:45:38;101171.06;;;30.10;51.09
4576;BME280;2300;51.874;8.430;2023-09-07T11:48:07;101166.91;;;30.44;51.34
4576;BME280;2300;51.874;8.430;2023-09-07T11:50:35;101169.00;;;30.47;52.84
4576;BME280;2300;51.874;8.430;2023-09-07T11:53:03;101157.91;;;30.54;50.91
4576;BME280;2300;51.874;8.430;2023-09-07T11:55:31;101121.47;;;30.41;50.85
4576;BME280;2300;51.874;8.430;2023-09-07T11:57:57;101160.50;;;30.47;50.41
4576;BME280;2300;51.874;8.430;2023-09-07T12:00:26;101159.00;;;30.50;49.83
4576;BME280;2300;51.874;8.430;2023-09-07T12:02:54;101156.16;;;30.38;48.66
4576;BME280;2300;51.874;8.430;2023-09-07T12:05:23;101107.53;;;29.75;49.84
4576;BME280;2300;51.874;8.430;2023-09-07T12:07:50;101158.38;;;29.96;49.17
4576;BME280;2300;51.874;8.430;2023-09-07T12:10:17;101154.59;;;29.92;50.83
4576;BME280;2300;51.874;8.430;2023-09-07T12:12:44;101152.88;;;30.11;51.39
4576;BME280;2300;51.874;8.430;2023-09-07T12:15:11;101149.47;;;30.30;51.12
4576;BME280;2300;51.874;8.430;2023-09-07T12:17:39;101127.00;;;30.37;50.24
4576;BME280;2300;51.874;8.430;2023-09-07T12:20:07;101101.75;;;30.56;51.21
4576;BME280;2300;51.874;8.430;2023-09-07T12:22:39;101142.50;;;30.92;50.63
4576;BME280;2300;51.874;8.430;2023-09-07T12:25:06;101108.09;;;30.78;49.26
4576;BME280;2300;51.874;8.430;2023-09-07T12:27:36;101088.81;;;30.31;49.03
4576;BME280;2300;51.874;8.430;2023-09-07T12:30:06;101129.34;;;30.60;49.61
4576;BME280;2300;51.874;8.430;2023-09-07T12:32:38;101108.59;;;30.43;49.66
4576;BME280;2300;51.874;8.430;2023-09-07T12:35:05;101122.75;;;30.55;49.05
4576;BME280;2300;51.874;8.430;2023-09-07T12:37:34;101132.69;;;30.62;49.54
4576;BME280;2300;51.874;8.430;2023-09-07T12:40:03;101124.91;;;30.46;48.65
4576;BME280;2300;51.874;8.430;2023-09-07T12:42:38;101101.75;;;30.44;48.88
4576;BME280;2300;51.874;8.430;2023-09-07T12:45:07;101126.53;;;30.72;49.40
4576;BME280;2300;51.874;8.430;2023-09-07T12:47:34;101134.72;;;30.89;49.55
4576;BME280;2300;51.874;8.430;2023-09-07T12:50:02;101107.94;;;30.86;49.47
4576;BME280;2300;51.874;8.430;2023-09-07T12:52:30;101122.41;;;30.97;49.67
4576;BME280;2300;51.874;8.430;2023-09-07T12:54:57;101115.44;;;30.94;48.95
4576;BME280;2300;51.874;8.430;2023-09-07T12:57:26;101121.81;;;31.04;49.91
4576;BME280;2300;51.874;8.430;2023-09-07T12:59:52;101120.09;;;31.15;48.99
4576;BME280;2300;51.874;8.430;2023-09-07T13:02:19;101101.91;;;30.88;48.67
4576;BME280;2300;51.874;8.430;2023-09-07T13:04:47;101126.00;;;31.10;49.98
4576;BME280;2300;51.874;8.430;2023-09-07T13:07:14;101128.19;;;31.01;51.86
4576;BME280;2300;51.874;8.430;2023-09-07T13:09:43;101112.09;;;31.05;50.26
4576;BME280;2300;51.874;8.430;2023-09-07T13:12:09;101095.91;;;31.05;49.72
4576;BME280;2300;51.874;8.430;2023-09-07T13:14:37;101112.44;;;31.15;49.74
4576;BME280;2300;51.874;8.430;2023-09-07T13:17:04;101108.28;;;30.85;46.14
4576;BME280;2300;51.874;8.430;2023-09-07T13:19:32;101108.59;;;30.55;48.16